Terminal Aerodrome Forecast
Issued by NWS Louisville, KY

Home | Current Version | Previous Version | Text Only | Print | Product List | Glossary On
Versions: 1 2 3 4 5 6 7 8 9 10 11 12 13 14 15 16 17
000
FTUS43 KLMK 021000 AAA
TAFBWG
TAF AMD
KBWG 021046Z 0211/0306 00000KT 6SM BR FEW150
     FM021300 VRB03KT P6SM FEW050 FEW120
     FM030000 VRB03KT P6SM FEW120=

USA.gov is the U.S. government's official web portal to all federal, state and local government web resources and services.